createdAt,value
2022-10-22T00:00:14.557Z,86.40
2022-10-22T00:02:42.093Z,86.20
2022-10-22T00:05:09.771Z,86.80
2022-10-22T00:07:36.914Z,84.30
2022-10-22T00:10:05.919Z,85.50
2022-10-22T00:12:33.153Z,87.50
2022-10-22T00:15:00.322Z,88.60
2022-10-22T00:17:27.779Z,88.20
2022-10-22T00:19:55.154Z,84.80
2022-10-22T00:22:22.457Z,89.00
2022-10-22T00:24:49.868Z,91.00
2022-10-22T00:27:16.961Z,92.00
2022-10-22T00:29:44.156Z,92.10
2022-10-22T00:32:11.504Z,91.50
2022-10-22T00:34:38.641Z,88.20
2022-10-22T00:37:05.787Z,88.20
2022-10-22T00:39:33.217Z,90.10
2022-10-22T00:42:00.609Z,90.30
2022-10-22T00:44:46.574Z,90.80
2022-10-22T00:47:14.587Z,88.70
2022-10-22T00:49:41.996Z,88.50
2022-10-22T00:52:09.584Z,87.70
2022-10-22T00:54:37.507Z,88.10
2022-10-22T00:57:04.787Z,89.20
2022-10-22T00:59:31.961Z,88.60
2022-10-22T01:01:59.110Z,89.70
2022-10-22T01:04:26.673Z,90.30
2022-10-22T01:06:54.087Z,89.20
2022-10-22T01:09:40.026Z,88.70
2022-10-22T01:12:26.590Z,87.90
2022-10-22T01:15:09.174Z,88.00
2022-10-22T01:17:41.447Z,88.80
2022-10-22T01:20:27.765Z,87.30
2022-10-22T01:23:21.537Z,87.90
2022-10-22T01:25:56.765Z,87.80
2022-10-22T01:28:35.189Z,88.00
2022-10-22T01:31:03.617Z,89.40
2022-10-22T01:33:31.242Z,90.40
2022-10-22T01:36:00.252Z,89.70
2022-10-22T01:38:27.820Z,90.10
2022-10-22T01:40:56.742Z,90.20
2022-10-22T01:43:24.150Z,88.30
2022-10-22T01:45:52.846Z,88.80
2022-10-22T01:48:27.776Z,89.50
2022-10-22T01:51:13.624Z,88.90
2022-10-22T01:53:53.301Z,85.90
2022-10-22T01:56:41.137Z,89.10
2022-10-22T01:59:08.352Z,91.40
2022-10-22T02:01:54.248Z,91.00
2022-10-22T02:04:26.671Z,90.20
2022-10-22T02:06:56.696Z,91.50
2022-10-22T02:09:24.520Z,91.10
2022-10-22T02:11:52.327Z,89.20
2022-10-22T02:14:20.193Z,88.40
2022-10-22T02:16:48.884Z,87.70
2022-10-22T02:19:33.510Z,88.40
2022-10-22T02:22:01.083Z,88.50
2022-10-22T02:24:28.337Z,88.30
2022-10-22T02:27:05.865Z,87.80
2022-10-22T02:29:33.032Z,88.00
2022-10-22T02:32:01.653Z,86.90
2022-10-22T02:34:31.092Z,86.40
2022-10-22T02:36:59.685Z,89.10
2022-10-22T02:39:27.881Z,90.40
2022-10-22T02:41:56.625Z,89.00
2022-10-22T02:44:24.380Z,89.30
2022-10-22T02:46:51.508Z,88.10
2022-10-22T02:49:18.754Z,88.10
2022-10-22T02:51:45.873Z,89.80
2022-10-22T02:54:13.020Z,91.20
2022-10-22T02:56:40.179Z,90.70
2022-10-22T02:59:07.327Z,90.40
2022-10-22T03:01:34.934Z,87.30
2022-10-22T03:04:02.166Z,86.40
2022-10-22T03:06:29.344Z,87.50
2022-10-22T03:08:57.041Z,87.40
2022-10-22T03:11:24.239Z,87.50
2022-10-22T03:13:51.525Z,88.10
2022-10-22T03:16:18.744Z,90.50
2022-10-22T03:18:45.959Z,91.30
2022-10-22T03:21:21.215Z,90.60
2022-10-22T03:23:48.668Z,88.70
2022-10-22T03:26:15.849Z,87.50
2022-10-22T03:28:43.455Z,87.30
2022-10-22T03:31:10.708Z,86.80
2022-10-22T03:33:37.749Z,88.30
2022-10-22T03:36:06.468Z,91.70
2022-10-22T03:38:35.476Z,92.90
2022-10-22T03:41:02.800Z,93.30
2022-10-22T03:43:29.894Z,92.90
2022-10-22T03:45:57.076Z,91.70
2022-10-22T03:48:24.318Z,90.00
2022-10-22T03:50:51.749Z,90.10
2022-10-22T03:53:19.239Z,89.50
2022-10-22T03:55:46.393Z,89.50
2022-10-22T03:58:13.772Z,88.70
2022-10-22T04:00:43.342Z,87.60
2022-10-22T04:03:11.510Z,89.20
2022-10-22T04:05:38.723Z,91.60
2022-10-22T04:08:08.807Z,91.50
2022-10-22T04:10:36.094Z,89.50
2022-10-22T04:13:03.195Z,89.30
2022-10-22T04:15:32.003Z,90.10
2022-10-22T04:17:59.405Z,87.80
2022-10-22T04:20:26.625Z,89.00
2022-10-22T04:22:54.075Z,88.60
2022-10-22T04:25:21.681Z,89.00
2022-10-22T04:27:49.272Z,88.40
2022-10-22T04:30:17.558Z,87.50
2022-10-22T04:32:45.800Z,86.80
2022-10-22T04:35:13.442Z,88.30
2022-10-22T04:37:41.114Z,88.50
2022-10-22T04:40:09.153Z,88.20
2022-10-22T04:42:36.419Z,87.50
2022-10-22T04:45:04.668Z,86.40
2022-10-22T04:47:32.787Z,86.50
2022-10-22T04:49:59.998Z,88.40
2022-10-22T04:52:27.204Z,88.30
2022-10-22T04:54:54.326Z,88.90
2022-10-22T04:57:22.097Z,89.00
2022-10-22T04:59:49.393Z,88.80
2022-10-22T05:02:16.672Z,87.50
2022-10-22T05:04:44.544Z,87.90
2022-10-22T05:07:11.782Z,88.60
2022-10-22T05:09:38.891Z,91.60
2022-10-22T05:12:06.711Z,93.40
2022-10-22T05:14:33.914Z,94.00
2022-10-22T05:17:01.368Z,94.30
2022-10-22T05:19:30.036Z,93.80
2022-10-22T05:21:58.917Z,92.70
2022-10-22T05:24:28.096Z,92.10
2022-10-22T05:26:56.854Z,92.10
2022-10-22T05:29:24.051Z,92.60
2022-10-22T05:31:51.818Z,92.40
2022-10-22T05:34:19.477Z,92.10
2022-10-22T05:36:48.204Z,91.60
2022-10-22T05:39:15.331Z,91.30
2022-10-22T05:41:42.539Z,90.40
2022-10-22T05:44:12.075Z,91.30
2022-10-22T05:46:40.291Z,90.10
2022-10-22T05:49:07.791Z,90.60
2022-10-22T05:51:36.099Z,90.50
2022-10-22T05:54:04.151Z,90.50
2022-10-22T05:56:32.225Z,90.30
2022-10-22T05:58:59.761Z,90.10
2022-10-22T06:01:33.969Z,90.20
2022-10-22T06:04:03.146Z,90.10
2022-10-22T06:06:33.252Z,89.90
2022-10-22T06:09:19.389Z,88.90
2022-10-22T06:11:47.322Z,89.10
2022-10-22T06:14:14.969Z,89.30
2022-10-22T06:16:42.397Z,89.00
2022-10-22T06:19:15.604Z,89.30
2022-10-22T06:21:43.147Z,90.10
2022-10-22T06:24:11.074Z,91.60
2022-10-22T06:26:38.830Z,91.50
2022-10-22T06:29:06.336Z,91.40
2022-10-22T06:31:37.236Z,91.50
2022-10-22T06:34:05.289Z,91.50
2022-10-22T06:36:32.455Z,91.20
2022-10-22T06:39:00.009Z,90.60
2022-10-22T06:41:28.963Z,91.20
2022-10-22T06:44:30.877Z,91.80
2022-10-22T06:46:58.308Z,92.20
2022-10-22T06:49:38.571Z,91.90
2022-10-22T06:52:09.095Z,91.60
2022-10-22T06:54:36.914Z,91.50
2022-10-22T06:57:04.218Z,91.50
2022-10-22T06:59:32.502Z,91.10
2022-10-22T07:01:59.936Z,90.80
2022-10-22T07:04:27.344Z,92.20
2022-10-22T07:06:57.779Z,92.20
2022-10-22T07:09:25.843Z,92.10
2022-10-22T07:11:53.102Z,91.20
2022-10-22T07:14:20.800Z,91.60
2022-10-22T07:16:48.374Z,91.20
2022-10-22T07:19:16.117Z,91.20
2022-10-22T07:21:43.425Z,90.60
2022-10-22T07:24:10.900Z,91.50
2022-10-22T07:26:38.178Z,91.40
2022-10-22T07:29:07.678Z,90.80
2022-10-22T07:31:35.734Z,89.60
2022-10-22T07:34:03.161Z,89.40
2022-10-22T07:36:30.457Z,90.80
2022-10-22T07:38:59.969Z,90.80
2022-10-22T07:41:29.338Z,90.10
2022-10-22T07:43:57.888Z,88.60
2022-10-22T07:46:26.578Z,88.70
2022-10-22T07:48:54.508Z,88.50
2022-10-22T07:51:22.293Z,88.50
2022-10-22T07:53:49.945Z,87.50
2022-10-22T07:56:17.836Z,86.30
2022-10-22T07:58:47.790Z,85.70
2022-10-22T08:01:15.781Z,85.40
2022-10-22T08:03:43.080Z,84.90
2022-10-22T08:06:13.838Z,84.20
2022-10-22T08:08:42.447Z,83.50
2022-10-22T08:11:10.712Z,83.70
2022-10-22T08:13:42.718Z,84.00
2022-10-22T08:16:14.499Z,82.70
2022-10-22T08:18:48.878Z,82.40
2022-10-22T08:21:17.782Z,81.30
2022-10-22T08:23:45.075Z,80.10
2022-10-22T08:26:12.769Z,78.30
2022-10-22T08:28:40.168Z,78.00
2022-10-22T08:31:08.457Z,79.10
2022-10-22T08:33:36.524Z,79.00
2022-10-22T08:36:04.044Z,78.90
2022-10-22T08:38:35.504Z,78.50
2022-10-22T08:41:13.442Z,79.20
2022-10-22T08:44:00.049Z,79.50
2022-10-22T08:46:39.475Z,79.20
2022-10-22T08:49:31.706Z,79.60
2022-10-22T08:51:59.792Z,80.30
2022-10-22T08:54:53.616Z,79.50
2022-10-22T08:57:24.465Z,78.90
2022-10-22T09:00:27.504Z,78.50
2022-10-22T09:03:15.033Z,77.40
2022-10-22T09:05:59.437Z,76.40
2022-10-22T09:08:26.834Z,76.60
2022-10-22T09:11:14.050Z,76.80
2022-10-22T09:13:43.713Z,77.70
2022-10-22T09:16:38.722Z,77.80
2022-10-22T09:19:27.511Z,79.10
2022-10-22T09:22:19.420Z,79.70
2022-10-22T09:24:49.486Z,80.10
2022-10-22T09:27:26.223Z,80.10
2022-10-22T09:29:53.598Z,80.20
2022-10-22T09:32:21.716Z,80.20
2022-10-22T09:34:51.339Z,81.20
2022-10-22T09:37:25.091Z,80.70
2022-10-22T09:39:54.313Z,80.30
2022-10-22T09:42:22.721Z,80.00
2022-10-22T09:44:59.342Z,81.50
2022-10-22T09:47:43.215Z,81.90
2022-10-22T09:50:28.546Z,81.60
2022-10-22T09:53:12.645Z,79.70
2022-10-22T09:55:42.232Z,79.30
2022-10-22T09:58:15.271Z,79.60
2022-10-22T10:00:47.063Z,80.30
2022-10-22T10:03:25.336Z,79.10
2022-10-22T10:06:01.622Z,78.60
2022-10-22T10:08:33.109Z,77.10
2022-10-22T10:11:02.443Z,76.80
2022-10-22T10:13:45.992Z,76.30
2022-10-22T10:16:41.080Z,76.50
2022-10-22T10:19:43.369Z,77.20
2022-10-22T10:22:54.519Z,76.50
2022-10-22T10:26:02.755Z,76.80
2022-10-22T10:28:58.332Z,76.20
2022-10-22T10:31:33.944Z,75.30
2022-10-22T10:34:01.329Z,74.30
2022-10-22T10:36:44.602Z,73.70
2022-10-22T10:39:32.653Z,73.80
2022-10-22T10:42:22.300Z,71.90
2022-10-22T10:45:34.925Z,71.70
2022-10-22T10:48:16.510Z,71.80
2022-10-22T10:51:26.781Z,72.20
2022-10-22T10:54:31.993Z,72.10
2022-10-22T10:57:13.435Z,73.00
2022-10-22T10:59:55.719Z,71.00
2022-10-22T11:02:54.060Z,72.90
2022-10-22T11:05:51.196Z,72.30
2022-10-22T11:08:24.806Z,72.10
2022-10-22T11:11:03.862Z,72.30
2022-10-22T11:13:40.521Z,71.50
2022-10-22T11:16:17.048Z,71.80
2022-10-22T11:19:06.366Z,71.60
2022-10-22T11:21:42.331Z,72.00
2022-10-22T11:24:20.511Z,72.00
2022-10-22T11:27:31.687Z,71.00
2022-10-22T11:30:27.643Z,70.90
2022-10-22T11:33:02.237Z,71.30
2022-10-22T11:35:34.888Z,71.40
2022-10-22T11:38:04.998Z,72.00
2022-10-22T11:40:53.104Z,72.00
2022-10-22T11:44:14.133Z,72.50
2022-10-22T11:46:54.984Z,72.70
2022-10-22T11:49:44.806Z,73.50
2022-10-22T11:52:28.233Z,73.60
2022-10-22T11:54:58.131Z,72.70
2022-10-22T11:57:29.557Z,72.20
2022-10-22T11:59:59.988Z,72.00
2022-10-22T12:02:46.130Z,71.70
2022-10-22T12:05:35.095Z,71.30
2022-10-22T12:08:24.217Z,71.80
2022-10-22T12:11:11.218Z,71.40
2022-10-22T12:14:13.391Z,72.30
2022-10-22T12:16:58.024Z,72.60
2022-10-22T12:19:37.388Z,73.20
2022-10-22T12:22:10.249Z,72.70
2022-10-22T12:24:40.877Z,73.40
2022-10-22T12:27:28.178Z,73.70
2022-10-22T12:29:58.991Z,72.50
2022-10-22T12:32:38.195Z,72.60
2022-10-22T12:35:15.996Z,71.60
2022-10-22T12:37:44.009Z,70.20
2022-10-22T12:40:21.978Z,68.20
2022-10-22T12:42:56.656Z,66.70
2022-10-22T12:45:33.459Z,66.40
2022-10-22T12:48:09.459Z,66.20
2022-10-22T12:50:41.761Z,65.70
2022-10-22T12:53:46.676Z,64.60
2022-10-22T12:56:22.421Z,63.60
2022-10-22T12:58:56.893Z,63.50
2022-10-22T13:01:28.108Z,65.20
2022-10-22T13:04:15.243Z,66.10
2022-10-22T13:06:51.042Z,66.50
2022-10-22T13:09:25.241Z,65.00
2022-10-22T13:12:05.730Z,66.10
2022-10-22T13:14:35.901Z,66.30
2022-10-22T13:17:37.503Z,66.90
2022-10-22T13:20:32.847Z,67.50
2022-10-22T13:23:05.747Z,69.00
2022-10-22T13:25:35.840Z,68.30
2022-10-22T13:28:13.243Z,67.30
2022-10-22T13:31:14.653Z,67.90
2022-10-22T13:33:45.517Z,67.30
2022-10-22T13:36:17.129Z,65.30
2022-10-22T13:38:45.132Z,64.60
2022-10-22T13:41:33.449Z,63.50
2022-10-22T13:44:00.874Z,65.00
2022-10-22T13:46:29.596Z,64.60
2022-10-22T13:48:59.042Z,64.40
2022-10-22T13:51:35.402Z,65.50
2022-10-22T13:54:04.018Z,65.40
2022-10-22T13:56:31.301Z,65.50
2022-10-22T13:58:58.628Z,64.80
2022-10-22T14:01:28.446Z,64.00
2022-10-22T14:04:01.968Z,64.70
2022-10-22T14:06:32.118Z,64.10
2022-10-22T14:09:12.136Z,64.50
2022-10-22T14:11:40.055Z,65.10
2022-10-22T14:14:09.298Z,65.30
2022-10-22T14:16:37.978Z,63.40
2022-10-22T14:19:10.545Z,63.20
2022-10-22T14:21:38.658Z,64.60
2022-10-22T14:24:08.367Z,63.20
2022-10-22T14:26:38.167Z,64.00
2022-10-22T14:29:10.324Z,64.60
2022-10-22T14:31:43.793Z,65.50
2022-10-22T14:34:14.557Z,66.30
2022-10-22T14:36:44.368Z,65.50
2022-10-22T14:39:13.073Z,65.60
2022-10-22T14:41:41.382Z,65.30
2022-10-22T14:44:14.908Z,64.80
2022-10-22T14:46:44.672Z,65.20
2022-10-22T14:49:12.421Z,65.30
2022-10-22T14:51:39.766Z,68.00
2022-10-22T14:54:07.183Z,68.40
2022-10-22T14:56:34.691Z,68.20
2022-10-22T14:59:01.989Z,66.50
2022-10-22T15:01:29.576Z,66.20
2022-10-22T15:03:57.724Z,65.80
2022-10-22T15:06:25.468Z,65.50
2022-10-22T15:08:53.450Z,65.20
2022-10-22T15:11:22.333Z,67.00
2022-10-22T15:13:50.151Z,67.20
2022-10-22T15:16:18.664Z,69.90
2022-10-22T15:18:46.119Z,70.80
2022-10-22T15:21:19.726Z,71.80
2022-10-22T15:23:47.961Z,72.90
2022-10-22T15:26:15.712Z,73.60
2022-10-22T15:28:44.482Z,73.90
2022-10-22T15:31:14.561Z,74.00
2022-10-22T15:33:43.927Z,73.20
2022-10-22T15:36:16.681Z,73.60
2022-10-22T15:38:44.577Z,73.50
2022-10-22T15:41:13.664Z,74.20
2022-10-22T15:43:42.251Z,74.10
2022-10-22T15:46:18.865Z,74.30
2022-10-22T15:48:46.386Z,74.30
2022-10-22T15:51:16.032Z,74.50
2022-10-22T15:53:44.564Z,74.60
2022-10-22T15:56:14.958Z,74.70
2022-10-22T15:58:44.211Z,75.20
2022-10-22T16:01:13.724Z,74.60
2022-10-22T16:03:41.874Z,75.00
2022-10-22T16:06:09.828Z,74.60
2022-10-22T16:08:37.950Z,74.80
2022-10-22T16:11:06.006Z,75.30
2022-10-22T16:13:36.076Z,75.90
2022-10-22T16:16:10.491Z,76.60
2022-10-22T16:18:37.789Z,77.30
2022-10-22T16:21:05.283Z,77.90
2022-10-22T16:23:32.543Z,77.80
2022-10-22T16:26:03.118Z,77.90
2022-10-22T16:28:30.735Z,77.80
2022-10-22T16:31:04.830Z,77.90
2022-10-22T16:33:41.292Z,77.70
2022-10-22T16:36:18.761Z,78.40
2022-10-22T16:38:47.576Z,78.70
2022-10-22T16:41:23.940Z,79.30
2022-10-22T16:43:57.119Z,79.40
2022-10-22T16:46:27.343Z,79.20
2022-10-22T16:48:58.556Z,79.00
2022-10-22T16:51:31.290Z,79.20
2022-10-22T16:53:58.856Z,79.50
2022-10-22T16:56:27.095Z,79.40
2022-10-22T16:58:59.141Z,79.70
2022-10-22T17:01:29.263Z,79.70
2022-10-22T17:04:01.152Z,80.00
2022-10-22T17:06:28.986Z,80.20
2022-10-22T17:08:57.580Z,80.10
2022-10-22T17:11:26.373Z,80.20
2022-10-22T17:13:55.548Z,80.20
2022-10-22T17:16:25.647Z,80.30
2022-10-22T17:18:58.346Z,80.40
2022-10-22T17:21:26.407Z,80.20
2022-10-22T17:23:58.052Z,80.20
2022-10-22T17:26:27.560Z,80.30
2022-10-22T17:28:57.147Z,80.30
2022-10-22T17:31:33.073Z,80.20
2022-10-22T17:34:00.622Z,80.40
2022-10-22T17:36:33.240Z,80.00
2022-10-22T17:39:06.951Z,79.80
2022-10-22T17:41:36.911Z,80.40
2022-10-22T17:44:05.904Z,80.70
2022-10-22T17:46:34.141Z,80.50
2022-10-22T17:49:08.179Z,80.60
2022-10-22T17:51:35.678Z,80.30
2022-10-22T17:54:05.968Z,80.20
2022-10-22T17:56:37.377Z,81.20
2022-10-22T17:59:04.754Z,82.00
2022-10-22T18:01:39.788Z,82.30
2022-10-22T18:04:09.320Z,82.30
2022-10-22T18:06:37.669Z,81.80
2022-10-22T18:09:11.514Z,81.70
2022-10-22T18:11:40.892Z,81.30
2022-10-22T18:14:10.303Z,81.10
2022-10-22T18:16:39.531Z,82.70
2022-10-22T18:19:07.428Z,82.30
2022-10-22T18:21:34.992Z,81.90
2022-10-22T18:24:02.383Z,82.20
2022-10-22T18:26:29.743Z,80.90
2022-10-22T18:28:58.332Z,81.30
2022-10-22T18:31:27.120Z,82.10
2022-10-22T18:33:55.854Z,81.70
2022-10-22T18:36:26.069Z,82.90
2022-10-22T18:38:56.095Z,81.70
2022-10-22T18:41:23.782Z,84.40
2022-10-22T18:43:57.448Z,84.10
2022-10-22T18:46:26.114Z,83.10
2022-10-22T18:48:55.155Z,84.20
2022-10-22T18:51:25.037Z,83.70
2022-10-22T18:54:05.164Z,84.00
2022-10-22T18:56:45.225Z,83.60
2022-10-22T18:59:22.053Z,83.00
2022-10-22T19:01:49.558Z,84.00
2022-10-22T19:04:16.854Z,83.80
2022-10-22T19:06:45.748Z,83.90
2022-10-22T19:09:15.681Z,83.70
2022-10-22T19:11:45.297Z,83.40
2022-10-22T19:14:15.261Z,82.50
2022-10-22T19:16:44.282Z,83.50
2022-10-22T19:19:16.155Z,84.90
2022-10-22T19:21:45.299Z,85.00
2022-10-22T19:24:15.336Z,84.60
2022-10-22T19:26:43.291Z,85.50
2022-10-22T19:29:13.447Z,85.50
2022-10-22T19:31:48.370Z,88.40
2022-10-22T19:34:15.732Z,89.00
2022-10-22T19:36:43.027Z,88.60
2022-10-22T19:39:10.464Z,87.60
2022-10-22T19:41:37.785Z,86.60
2022-10-22T19:44:05.306Z,85.40
2022-10-22T19:46:32.891Z,84.70
2022-10-22T19:49:02.027Z,84.20
2022-10-22T19:51:31.057Z,83.80
2022-10-22T19:54:00.880Z,83.50
2022-10-22T19:56:29.289Z,83.20
2022-10-22T19:58:58.008Z,84.00
2022-10-22T20:01:26.816Z,83.70
2022-10-22T20:03:54.965Z,87.10
2022-10-22T20:06:22.442Z,87.90
2022-10-22T20:08:53.798Z,88.00
2022-10-22T20:11:27.730Z,90.90
2022-10-22T20:13:57.796Z,90.90
2022-10-22T20:16:28.737Z,90.10
2022-10-22T20:19:00.011Z,88.70
2022-10-22T20:21:28.579Z,89.30
2022-10-22T20:23:57.640Z,89.20
2022-10-22T20:26:28.354Z,88.60
2022-10-22T20:28:58.385Z,88.70
2022-10-22T20:31:28.772Z,88.70
2022-10-22T20:33:58.569Z,87.40
2022-10-22T20:36:27.210Z,87.40
2022-10-22T20:39:00.713Z,88.70
2022-10-22T20:41:29.505Z,88.20
2022-10-22T20:43:57.809Z,87.20
2022-10-22T20:46:33.481Z,88.20
2022-10-22T20:49:09.867Z,87.70
2022-10-22T20:51:38.550Z,84.30
2022-10-22T20:54:07.598Z,86.90
2022-10-22T20:56:38.611Z,87.80
2022-10-22T20:59:08.479Z,87.70
2022-10-22T21:01:44.772Z,89.50
2022-10-22T21:04:12.199Z,87.70
2022-10-22T21:06:41.484Z,89.20
2022-10-22T21:09:14.973Z,89.00
2022-10-22T21:11:43.671Z,88.70
2022-10-22T21:14:12.647Z,88.30
2022-10-22T21:16:49.750Z,88.40
2022-10-22T21:19:19.468Z,87.50
2022-10-22T21:21:46.848Z,85.90
2022-10-22T21:24:14.832Z,87.40
2022-10-22T21:26:43.525Z,87.70
2022-10-22T21:29:12.885Z,87.70
2022-10-22T21:31:41.004Z,88.00
2022-10-22T21:34:08.335Z,88.70
2022-10-22T21:36:35.974Z,89.10
2022-10-22T21:39:03.391Z,88.10
2022-10-22T21:41:31.214Z,87.90
2022-10-22T21:43:59.655Z,89.10
2022-10-22T21:46:29.241Z,89.20
2022-10-22T21:49:02.234Z,88.90
2022-10-22T21:51:35.654Z,88.00
2022-10-22T21:54:03.018Z,88.30
2022-10-22T21:56:35.967Z,88.80
2022-10-22T21:59:05.027Z,87.60
2022-10-22T22:01:32.823Z,86.90
2022-10-22T22:04:01.267Z,87.20
2022-10-22T22:06:33.050Z,88.20
2022-10-22T22:09:02.071Z,90.90
2022-10-22T22:11:30.943Z,91.70
2022-10-22T22:13:59.849Z,92.00
2022-10-22T22:16:30.066Z,91.80
2022-10-22T22:19:00.439Z,91.00
2022-10-22T22:21:29.502Z,92.20
2022-10-22T22:23:58.282Z,91.60
2022-10-22T22:26:30.268Z,90.80
2022-10-22T22:29:01.336Z,89.30
2022-10-22T22:31:38.537Z,88.40
2022-10-22T22:34:10.407Z,88.20
2022-10-22T22:36:40.194Z,88.30
2022-10-22T22:39:11.077Z,88.00
2022-10-22T22:41:38.470Z,87.70
2022-10-22T22:44:05.900Z,87.40
2022-10-22T22:46:33.583Z,87.30
2022-10-22T22:49:01.173Z,86.00
2022-10-22T22:51:33.902Z,88.30
2022-10-22T22:54:09.137Z,90.40
2022-10-22T22:56:38.944Z,91.10
2022-10-22T22:59:06.902Z,90.70
2022-10-22T23:01:37.035Z,89.80
2022-10-22T23:04:05.961Z,89.70
2022-10-22T23:06:36.391Z,88.80
2022-10-22T23:09:09.595Z,89.60
2022-10-22T23:11:37.300Z,90.50
2022-10-22T23:14:06.705Z,90.00
2022-10-22T23:16:36.937Z,88.30
2022-10-22T23:19:05.558Z,88.90
2022-10-22T23:21:36.104Z,89.40
2022-10-22T23:24:05.170Z,90.10
2022-10-22T23:26:39.740Z,90.60
2022-10-22T23:29:37.836Z,90.50
2022-10-22T23:32:08.488Z,92.40
2022-10-22T23:34:36.025Z,93.40
2022-10-22T23:37:03.323Z,92.20
2022-10-22T23:39:31.001Z,89.50
2022-10-22T23:41:58.749Z,90.70
2022-10-22T23:44:26.761Z,90.70
2022-10-22T23:46:55.618Z,89.50
2022-10-22T23:49:22.977Z,89.10
2022-10-22T23:51:50.284Z,91.70
2022-10-22T23:54:21.017Z,92.10
2022-10-22T23:56:48.395Z,92.20
2022-10-22T23:59:16.109Z,92.20
